New Joy — D7RB — position and weather

sailwx.info

Track history (hours):
 
Tides and Currents Weather Stations Pressure Air Temp Water Temp Dewpoint Dewpoint Depression Visibility Wind Speed Wind Dir Waves Ship Positions

New Joy

Last reported at 2017-Sep-11 12:56 UTC. Time now 2017-Sep-24 06:49 UTC.
Position N 21°53' E 120°20'.
Warning: this ship's position is 12 days out of date.

Length 269 m; draft 10 m.

Type: Cargo ship. MMSI: 440814000.

Date/timePositionNaut miles runAvg speedWind from/ knotsBaromVisibWave heightAir tempDewpointWater temp
2017-Sep-11 12:56N 21°53' E 120°20'612.4
2017-Sep-11 12:26N 21°55' E 120°14'612.6
2017-Sep-11 11:56N 22°01' E 120°11'712.7
2017-Sep-11 11:21N 22°08' E 120°08'513.1
2017-Sep-11 10:56N 22°13' E 120°06'613.1
2017-Sep-11 10:27N 22°19' E 120°04'711.0
2017-Sep-11 09:50N 22°26' E 120°06'512.7
2017-Sep-11 09:28N 22°29' E 120°09'612.3
2017-Sep-11 09:00N 22°33' E 120°14'5 9.3
2017-Sep-11 08:30N 22°33' E 120°19'1 1.7
2017-Sep-11 07:55N 22°34' E 120°18'0 0.0
2017-Sep-11 06:44N 22°34' E 120°18'0 0.0
2017-Sep-11 06:24N 22°34' E 120°18'0 0.0
2017-Sep-11 04:16N 22°34' E 120°18'0 0.0
2017-Sep-11 03:58N 22°34' E 120°18'0 0.0
2017-Sep-11 03:25N 22°34' E 120°18'0 0.0
2017-Sep-11 02:58N 22°34' E 120°18'0 0.0
2017-Sep-11 02:29N 22°34' E 120°18'0 0.0
2017-Sep-11 01:53N 22°34' E 120°18'0 0.0
2017-Sep-11 01:29N 22°34' E 120°18'0 0.0
2017-Sep-11 01:00N 22°34' E 120°18'0 0.0
2017-Sep-11 00:28N 22°34' E 120°18'0 0.9
2017-Sep-10 23:59N 22°34' E 120°19'3 5.6
2017-Sep-10 23:31N 22°33' E 120°16'1 2.2
2017-Sep-10 22:59N 22°32' E 120°16'0 0.0
2017-Sep-10 22:29N 22°32' E 120°16'0 0.0
2017-Sep-10 21:56N 22°32' E 120°16'0 0.2
2017-Sep-10 21:29N 22°32' E 120°16'0 0.3
2017-Sep-10 20:59N 22°32' E 120°16'0 0.2
2017-Sep-10 20:26N 22°32' E 120°15'0 0.0
2017-Sep-10 19:59N 22°32' E 120°15'0 0.2
2017-Sep-10 19:26N 22°32' E 120°15'0 0.0
2017-Sep-10 18:59N 22°32' E 120°15'0 0.0
2017-Sep-10 18:29N 22°32' E 120°15'0 0.1
2017-Sep-10 17:59N 22°32' E 120°15'0 0.2
2017-Sep-10 17:29N 22°32' E 120°15'0 0.2
2017-Sep-10 16:59N 22°32' E 120°15'0 0.2
2017-Sep-10 16:29N 22°32' E 120°15'0 0.3
2017-Sep-10 15:59N 22°32' E 120°15'0 0.0
2017-Sep-10 15:26N 22°32' E 120°15'0 0.1
2017-Sep-10 14:56N 22°32' E 120°16'4 4.8
2017-Sep-10 14:00N 22°34' E 120°11'713.2
2017-Sep-10 13:30N 22°40' E 120°08'612.3
2017-Sep-10 13:00N 22°45' E 120°05'  
2017-Sep-06 01:21N 22°44' E 119°56'411.0
2017-Sep-06 01:01N 22°40' E 119°56'611.0
2017-Sep-06 00:30N 22°34' E 119°56'911.3
2017-Sep-05 23:40N 22°25' E 119°57'311.0
2017-Sep-05 23:24N 22°22' E 119°57'  
Track history (hours):
 
Tides and Currents Weather Stations Pressure Air Temp Water Temp Dewpoint Dewpoint Depression Visibility Wind Speed Wind Dir Waves Ship Positions

New Joy

Last reported at 2017-Sep-11 12:56 UTC. Time now 2017-Sep-24 06:49 UTC.
Position N 21°53' E 120°20'.
Warning: this ship's position is 12 days out of date.

Length 269 m; draft 10 m.

Type: Cargo ship. MMSI: 440814000.

Date/timePositionNaut miles runAvg speedWind from/ knotsBaromVisibWave heightAir tempDewpointWater temp
2017-Sep-11 12:56N 21°53' E 120°20'612.4
2017-Sep-11 12:26N 21°55' E 120°14'612.6
2017-Sep-11 11:56N 22°01' E 120°11'712.7
2017-Sep-11 11:21N 22°08' E 120°08'513.1
2017-Sep-11 10:56N 22°13' E 120°06'613.1
2017-Sep-11 10:27N 22°19' E 120°04'711.0
2017-Sep-11 09:50N 22°26' E 120°06'512.7
2017-Sep-11 09:28N 22°29' E 120°09'612.3
2017-Sep-11 09:00N 22°33' E 120°14'5 9.3
2017-Sep-11 08:30N 22°33' E 120°19'1 1.7
2017-Sep-11 07:55N 22°34' E 120°18'0 0.0
2017-Sep-11 06:44N 22°34' E 120°18'0 0.0
2017-Sep-11 06:24N 22°34' E 120°18'0 0.0
2017-Sep-11 04:16N 22°34' E 120°18'0 0.0
2017-Sep-11 03:58N 22°34' E 120°18'0 0.0
2017-Sep-11 03:25N 22°34' E 120°18'0 0.0
2017-Sep-11 02:58N 22°34' E 120°18'0 0.0
2017-Sep-11 02:29N 22°34' E 120°18'0 0.0
2017-Sep-11 01:53N 22°34' E 120°18'0 0.0
2017-Sep-11 01:29N 22°34' E 120°18'0 0.0
2017-Sep-11 01:00N 22°34' E 120°18'0 0.0
2017-Sep-11 00:28N 22°34' E 120°18'0 0.9
2017-Sep-10 23:59N 22°34' E 120°19'3 5.6
2017-Sep-10 23:31N 22°33' E 120°16'1 2.2
2017-Sep-10 22:59N 22°32' E 120°16'0 0.0
2017-Sep-10 22:29N 22°32' E 120°16'0 0.0
2017-Sep-10 21:56N 22°32' E 120°16'0 0.2
2017-Sep-10 21:29N 22°32' E 120°16'0 0.3
2017-Sep-10 20:59N 22°32' E 120°16'0 0.2
2017-Sep-10 20:26N 22°32' E 120°15'0 0.0
2017-Sep-10 19:59N 22°32' E 120°15'0 0.2
2017-Sep-10 19:26N 22°32' E 120°15'0 0.0
2017-Sep-10 18:59N 22°32' E 120°15'0 0.0
2017-Sep-10 18:29N 22°32' E 120°15'0 0.1
2017-Sep-10 17:59N 22°32' E 120°15'0 0.2
2017-Sep-10 17:29N 22°32' E 120°15'0 0.2
2017-Sep-10 16:59N 22°32' E 120°15'0 0.2
2017-Sep-10 16:29N 22°32' E 120°15'0 0.3
2017-Sep-10 15:59N 22°32' E 120°15'0 0.0
2017-Sep-10 15:26N 22°32' E 120°15'0 0.1
2017-Sep-10 14:56N 22°32' E 120°16'4 4.8
2017-Sep-10 14:00N 22°34' E 120°11'713.2
2017-Sep-10 13:30N 22°40' E 120°08'612.3
2017-Sep-10 13:00N 22°45' E 120°05'  
2017-Sep-06 01:21N 22°44' E 119°56'411.0
2017-Sep-06 01:01N 22°40' E 119°56'611.0
2017-Sep-06 00:30N 22°34' E 119°56'911.3
2017-Sep-05 23:40N 22°25' E 119°57'311.0
2017-Sep-05 23:24N 22°22' E 119°57'  

Dump ship's entire track history